sensor_id;sensor_type;location;lat;lon;timestamp;P1;durP1;ratioP1;P2;durP2;ratioP2
70169;SDS011;57543;45.442;9.212;2022-12-07T00:00:18;31.50;;;17.33;;
70169;SDS011;57543;45.442;9.212;2022-12-07T00:03:22;30.10;;;17.98;;
70169;SDS011;57543;45.442;9.212;2022-12-07T00:06:26;32.80;;;18.57;;
70169;SDS011;57543;45.442;9.212;2022-12-07T00:09:30;29.85;;;17.08;;
70169;SDS011;57543;45.442;9.212;2022-12-07T00:12:33;28.58;;;17.10;;
70169;SDS011;57543;45.442;9.212;2022-12-07T00:15:36;31.40;;;17.60;;
70169;SDS011;57543;45.442;9.212;2022-12-07T00:18:40;31.10;;;17.50;;
70169;SDS011;57543;45.442;9.212;2022-12-07T00:21:45;32.13;;;16.70;;
70169;SDS011;57543;45.442;9.212;2022-12-07T00:24:49;30.23;;;17.15;;
70169;SDS011;57543;45.442;9.212;2022-12-07T00:27:53;34.13;;;17.65;;
70169;SDS011;57543;45.442;9.212;2022-12-07T00:31:00;31.70;;;17.70;;
70169;SDS011;57543;45.442;9.212;2022-12-07T00:34:11;31.77;;;17.00;;
70169;SDS011;57543;45.442;9.212;2022-12-07T00:37:20;31.60;;;17.67;;
70169;SDS011;57543;45.442;9.212;2022-12-07T00:40:23;31.08;;;16.67;;
70169;SDS011;57543;45.442;9.212;2022-12-07T00:43:27;32.53;;;17.38;;
70169;SDS011;57543;45.442;9.212;2022-12-07T00:46:30;32.03;;;17.48;;
70169;SDS011;57543;45.442;9.212;2022-12-07T00:49:34;32.20;;;17.80;;
70169;SDS011;57543;45.442;9.212;2022-12-07T00:52:38;30.90;;;16.83;;
70169;SDS011;57543;45.442;9.212;2022-12-07T00:55:42;35.15;;;17.40;;
70169;SDS011;57543;45.442;9.212;2022-12-07T00:58:53;32.38;;;18.08;;
70169;SDS011;57543;45.442;9.212;2022-12-07T01:01:58;33.08;;;18.60;;
70169;SDS011;57543;45.442;9.212;2022-12-07T01:05:02;32.67;;;18.63;;
70169;SDS011;57543;45.442;9.212;2022-12-07T01:08:06;32.57;;;17.80;;
70169;SDS011;57543;45.442;9.212;2022-12-07T01:11:12;31.92;;;17.70;;
70169;SDS011;57543;45.442;9.212;2022-12-07T01:14:17;35.00;;;19.38;;
70169;SDS011;57543;45.442;9.212;2022-12-07T01:17:21;31.90;;;17.77;;
70169;SDS011;57543;45.442;9.212;2022-12-07T01:20:25;31.77;;;18.25;;
70169;SDS011;57543;45.442;9.212;2022-12-07T01:23:28;35.53;;;18.63;;
70169;SDS011;57543;45.442;9.212;2022-12-07T01:26:33;36.00;;;18.63;;
70169;SDS011;57543;45.442;9.212;2022-12-07T01:29:36;36.35;;;19.23;;
70169;SDS011;57543;45.442;9.212;2022-12-07T01:32:39;35.17;;;18.92;;
70169;SDS011;57543;45.442;9.212;2022-12-07T01:35:44;31.88;;;18.38;;
70169;SDS011;57543;45.442;9.212;2022-12-07T01:38:48;36.17;;;18.93;;
70169;SDS011;57543;45.442;9.212;2022-12-07T01:41:56;31.33;;;17.98;;
70169;SDS011;57543;45.442;9.212;2022-12-07T01:48:23;31.55;;;18.13;;
70169;SDS011;57543;45.442;9.212;2022-12-07T01:51:34;30.20;;;17.63;;
70169;SDS011;57543;45.442;9.212;2022-12-07T01:54:42;31.80;;;17.30;;
70169;SDS011;57543;45.442;9.212;2022-12-07T01:57:48;33.22;;;17.55;;
70169;SDS011;57543;45.442;9.212;2022-12-07T02:00:53;32.58;;;17.55;;
70169;SDS011;57543;45.442;9.212;2022-12-07T02:03:57;31.70;;;17.45;;
70169;SDS011;57543;45.442;9.212;2022-12-07T02:07:01;33.50;;;18.15;;
70169;SDS011;57543;45.442;9.212;2022-12-07T02:10:23;31.90;;;17.67;;
70169;SDS011;57543;45.442;9.212;2022-12-07T02:13:30;33.97;;;17.17;;
70169;SDS011;57543;45.442;9.212;2022-12-07T02:16:55;31.48;;;17.70;;
70169;SDS011;57543;45.442;9.212;2022-12-07T02:23:40;33.00;;;18.05;;
70169;SDS011;57543;45.442;9.212;2022-12-07T02:30:42;34.65;;;18.23;;
70169;SDS011;57543;45.442;9.212;2022-12-07T02:33:52;33.15;;;17.33;;
70169;SDS011;57543;45.442;9.212;2022-12-07T02:37:01;33.67;;;17.48;;
70169;SDS011;57543;45.442;9.212;2022-12-07T02:40:34;31.25;;;17.25;;
70169;SDS011;57543;45.442;9.212;2022-12-07T02:43:39;33.53;;;17.70;;
70169;SDS011;57543;45.442;9.212;2022-12-07T02:46:50;33.88;;;18.05;;
70169;SDS011;57543;45.442;9.212;2022-12-07T02:49:58;34.17;;;17.23;;
70169;SDS011;57543;45.442;9.212;2022-12-07T02:53:02;33.33;;;18.92;;
70169;SDS011;57543;45.442;9.212;2022-12-07T02:56:25;33.78;;;18.17;;
70169;SDS011;57543;45.442;9.212;2022-12-07T03:03:21;30.65;;;16.92;;
70169;SDS011;57543;45.442;9.212;2022-12-07T03:06:31;29.20;;;17.35;;
70169;SDS011;57543;45.442;9.212;2022-12-07T03:09:45;30.40;;;16.98;;
70169;SDS011;57543;45.442;9.212;2022-12-07T03:12:57;29.50;;;17.30;;
70169;SDS011;57543;45.442;9.212;2022-12-07T03:19:22;29.60;;;16.83;;
70169;SDS011;57543;45.442;9.212;2022-12-07T03:22:30;27.67;;;16.55;;
70169;SDS011;57543;45.442;9.212;2022-12-07T03:25:40;27.30;;;14.82;;
70169;SDS011;57543;45.442;9.212;2022-12-07T03:28:51;33.15;;;16.42;;
70169;SDS011;57543;45.442;9.212;2022-12-07T03:32:02;27.33;;;16.53;;
70169;SDS011;57543;45.442;9.212;2022-12-07T03:38:25;26.50;;;15.75;;
70169;SDS011;57543;45.442;9.212;2022-12-07T03:41:34;29.38;;;16.90;;
70169;SDS011;57543;45.442;9.212;2022-12-07T03:44:41;27.48;;;15.82;;
70169;SDS011;57543;45.442;9.212;2022-12-07T03:47:47;27.17;;;15.63;;
70169;SDS011;57543;45.442;9.212;2022-12-07T03:51:04;24.92;;;15.23;;
70169;SDS011;57543;45.442;9.212;2022-12-07T03:54:17;23.23;;;14.25;;
70169;SDS011;57543;45.442;9.212;2022-12-07T03:57:25;26.98;;;15.20;;
70169;SDS011;57543;45.442;9.212;2022-12-07T04:00:30;24.60;;;15.02;;
70169;SDS011;57543;45.442;9.212;2022-12-07T04:03:34;26.00;;;15.57;;
70169;SDS011;57543;45.442;9.212;2022-12-07T04:06:38;24.80;;;15.18;;
70169;SDS011;57543;45.442;9.212;2022-12-07T04:09:42;25.90;;;15.38;;
70169;SDS011;57543;45.442;9.212;2022-12-07T04:12:45;25.30;;;15.63;;
70169;SDS011;57543;45.442;9.212;2022-12-07T04:15:49;27.33;;;16.45;;
70169;SDS011;57543;45.442;9.212;2022-12-07T04:18:53;29.63;;;16.10;;
70169;SDS011;57543;45.442;9.212;2022-12-07T04:21:57;23.45;;;15.18;;
70169;SDS011;57543;45.442;9.212;2022-12-07T04:25:02;24.88;;;15.30;;
70169;SDS011;57543;45.442;9.212;2022-12-07T04:28:06;22.48;;;14.02;;
70169;SDS011;57543;45.442;9.212;2022-12-07T04:31:09;25.95;;;14.77;;
70169;SDS011;57543;45.442;9.212;2022-12-07T04:34:13;22.77;;;14.20;;
70169;SDS011;57543;45.442;9.212;2022-12-07T04:37:17;20.10;;;13.18;;
70169;SDS011;57543;45.442;9.212;2022-12-07T04:40:21;23.23;;;13.50;;
70169;SDS011;57543;45.442;9.212;2022-12-07T04:43:25;22.60;;;14.18;;
70169;SDS011;57543;45.442;9.212;2022-12-07T04:46:29;22.42;;;13.65;;
70169;SDS011;57543;45.442;9.212;2022-12-07T04:49:34;22.37;;;13.87;;
70169;SDS011;57543;45.442;9.212;2022-12-07T04:52:37;23.40;;;13.73;;
70169;SDS011;57543;45.442;9.212;2022-12-07T04:55:41;20.13;;;13.43;;
70169;SDS011;57543;45.442;9.212;2022-12-07T04:58:45;21.65;;;13.40;;
70169;SDS011;57543;45.442;9.212;2022-12-07T05:01:50;21.52;;;13.63;;
70169;SDS011;57543;45.442;9.212;2022-12-07T05:04:54;20.13;;;13.43;;
70169;SDS011;57543;45.442;9.212;2022-12-07T05:07:57;20.42;;;12.82;;
70169;SDS011;57543;45.442;9.212;2022-12-07T05:11:02;22.38;;;13.57;;
70169;SDS011;57543;45.442;9.212;2022-12-07T05:14:11;23.90;;;13.75;;
70169;SDS011;57543;45.442;9.212;2022-12-07T05:17:15;20.67;;;12.77;;
70169;SDS011;57543;45.442;9.212;2022-12-07T05:20:19;21.03;;;12.90;;
70169;SDS011;57543;45.442;9.212;2022-12-07T05:23:23;21.08;;;13.27;;
70169;SDS011;57543;45.442;9.212;2022-12-07T05:26:27;20.48;;;13.32;;
70169;SDS011;57543;45.442;9.212;2022-12-07T05:29:31;20.00;;;12.88;;
70169;SDS011;57543;45.442;9.212;2022-12-07T05:32:34;21.55;;;12.98;;
70169;SDS011;57543;45.442;9.212;2022-12-07T05:35:38;21.47;;;13.47;;
70169;SDS011;57543;45.442;9.212;2022-12-07T05:38:42;20.80;;;12.95;;
70169;SDS011;57543;45.442;9.212;2022-12-07T05:41:46;20.50;;;12.98;;
70169;SDS011;57543;45.442;9.212;2022-12-07T05:45:08;20.17;;;12.48;;
70169;SDS011;57543;45.442;9.212;2022-12-07T05:48:12;21.42;;;13.32;;
70169;SDS011;57543;45.442;9.212;2022-12-07T05:51:16;19.50;;;12.77;;
70169;SDS011;57543;45.442;9.212;2022-12-07T05:54:20;21.35;;;13.07;;
70169;SDS011;57543;45.442;9.212;2022-12-07T05:57:24;20.67;;;12.98;;
70169;SDS011;57543;45.442;9.212;2022-12-07T06:00:27;22.13;;;13.23;;
70169;SDS011;57543;45.442;9.212;2022-12-07T06:03:31;23.67;;;13.57;;
70169;SDS011;57543;45.442;9.212;2022-12-07T06:06:35;23.23;;;14.40;;
70169;SDS011;57543;45.442;9.212;2022-12-07T06:09:39;22.73;;;13.35;;
70169;SDS011;57543;45.442;9.212;2022-12-07T06:12:43;23.30;;;14.52;;
70169;SDS011;57543;45.442;9.212;2022-12-07T06:15:48;22.45;;;12.98;;
70169;SDS011;57543;45.442;9.212;2022-12-07T06:18:52;21.42;;;13.65;;
70169;SDS011;57543;45.442;9.212;2022-12-07T06:21:56;23.73;;;13.13;;
70169;SDS011;57543;45.442;9.212;2022-12-07T06:25:00;21.20;;;13.20;;
70169;SDS011;57543;45.442;9.212;2022-12-07T06:28:04;20.30;;;12.75;;
70169;SDS011;57543;45.442;9.212;2022-12-07T06:31:08;23.23;;;13.02;;
70169;SDS011;57543;45.442;9.212;2022-12-07T06:34:13;22.77;;;13.15;;
70169;SDS011;57543;45.442;9.212;2022-12-07T06:37:18;22.10;;;12.50;;
70169;SDS011;57543;45.442;9.212;2022-12-07T06:40:22;23.42;;;12.40;;
70169;SDS011;57543;45.442;9.212;2022-12-07T06:43:25;20.73;;;12.63;;
70169;SDS011;57543;45.442;9.212;2022-12-07T06:46:29;21.08;;;12.60;;
70169;SDS011;57543;45.442;9.212;2022-12-07T06:49:33;20.63;;;12.25;;
70169;SDS011;57543;45.442;9.212;2022-12-07T06:52:37;20.73;;;12.47;;
70169;SDS011;57543;45.442;9.212;2022-12-07T06:55:40;20.75;;;11.95;;
70169;SDS011;57543;45.442;9.212;2022-12-07T06:58:44;19.70;;;11.40;;
70169;SDS011;57543;45.442;9.212;2022-12-07T07:01:47;17.85;;;11.02;;
70169;SDS011;57543;45.442;9.212;2022-12-07T07:04:51;18.67;;;11.70;;
70169;SDS011;57543;45.442;9.212;2022-12-07T07:07:55;19.13;;;10.90;;
70169;SDS011;57543;45.442;9.212;2022-12-07T07:10:59;18.70;;;11.93;;
70169;SDS011;57543;45.442;9.212;2022-12-07T07:14:03;20.30;;;12.20;;
70169;SDS011;57543;45.442;9.212;2022-12-07T07:17:07;21.00;;;11.48;;
70169;SDS011;57543;45.442;9.212;2022-12-07T07:20:11;19.55;;;11.95;;
70169;SDS011;57543;45.442;9.212;2022-12-07T07:23:15;20.00;;;12.23;;
70169;SDS011;57543;45.442;9.212;2022-12-07T07:26:19;18.65;;;11.65;;
70169;SDS011;57543;45.442;9.212;2022-12-07T07:29:22;24.23;;;12.70;;
70169;SDS011;57543;45.442;9.212;2022-12-07T07:32:26;22.63;;;13.00;;
70169;SDS011;57543;45.442;9.212;2022-12-07T07:35:31;22.85;;;13.60;;
70169;SDS011;57543;45.442;9.212;2022-12-07T07:38:35;21.30;;;13.87;;
70169;SDS011;57543;45.442;9.212;2022-12-07T07:41:39;22.52;;;13.85;;
70169;SDS011;57543;45.442;9.212;2022-12-07T07:44:49;22.48;;;13.52;;
70169;SDS011;57543;45.442;9.212;2022-12-07T07:47:53;21.58;;;13.32;;
70169;SDS011;57543;45.442;9.212;2022-12-07T07:50:57;21.48;;;13.48;;
70169;SDS011;57543;45.442;9.212;2022-12-07T07:54:01;24.50;;;13.73;;
70169;SDS011;57543;45.442;9.212;2022-12-07T07:57:05;22.50;;;13.82;;
70169;SDS011;57543;45.442;9.212;2022-12-07T08:00:10;23.10;;;13.93;;
70169;SDS011;57543;45.442;9.212;2022-12-07T08:03:18;26.15;;;14.20;;
70169;SDS011;57543;45.442;9.212;2022-12-07T08:06:22;26.83;;;15.20;;
70169;SDS011;57543;45.442;9.212;2022-12-07T08:09:26;26.07;;;15.20;;
70169;SDS011;57543;45.442;9.212;2022-12-07T08:12:30;23.25;;;14.75;;
70169;SDS011;57543;45.442;9.212;2022-12-07T08:15:36;25.85;;;14.73;;
70169;SDS011;57543;45.442;9.212;2022-12-07T08:18:41;24.02;;;14.43;;
70169;SDS011;57543;45.442;9.212;2022-12-07T08:21:45;24.35;;;13.70;;
70169;SDS011;57543;45.442;9.212;2022-12-07T08:24:49;24.27;;;14.13;;
70169;SDS011;57543;45.442;9.212;2022-12-07T08:27:53;24.10;;;14.35;;
70169;SDS011;57543;45.442;9.212;2022-12-07T08:31:00;27.60;;;14.73;;
70169;SDS011;57543;45.442;9.212;2022-12-07T08:34:06;25.50;;;14.73;;
70169;SDS011;57543;45.442;9.212;2022-12-07T08:37:10;24.63;;;14.02;;
70169;SDS011;57543;45.442;9.212;2022-12-07T08:40:14;25.30;;;14.60;;
70169;SDS011;57543;45.442;9.212;2022-12-07T08:43:19;27.52;;;15.02;;
70169;SDS011;57543;45.442;9.212;2022-12-07T08:49:53;26.48;;;15.38;;
70169;SDS011;57543;45.442;9.212;2022-12-07T08:52:58;27.02;;;14.80;;
70169;SDS011;57543;45.442;9.212;2022-12-07T08:56:02;27.03;;;15.50;;
70169;SDS011;57543;45.442;9.212;2022-12-07T08:59:07;26.15;;;15.45;;
70169;SDS011;57543;45.442;9.212;2022-12-07T09:02:11;25.88;;;16.42;;
70169;SDS011;57543;45.442;9.212;2022-12-07T09:05:15;29.10;;;16.38;;
70169;SDS011;57543;45.442;9.212;2022-12-07T09:08:19;26.17;;;15.80;;
70169;SDS011;57543;45.442;9.212;2022-12-07T09:11:24;29.27;;;16.23;;
70169;SDS011;57543;45.442;9.212;2022-12-07T09:14:27;27.90;;;16.08;;
70169;SDS011;57543;45.442;9.212;2022-12-07T09:17:32;26.55;;;16.23;;
70169;SDS011;57543;45.442;9.212;2022-12-07T09:20:36;26.35;;;15.85;;
70169;SDS011;57543;45.442;9.212;2022-12-07T09:23:41;29.52;;;16.80;;
70169;SDS011;57543;45.442;9.212;2022-12-07T09:26:45;29.47;;;16.40;;
70169;SDS011;57543;45.442;9.212;2022-12-07T09:29:49;28.30;;;16.75;;
70169;SDS011;57543;45.442;9.212;2022-12-07T09:32:53;32.45;;;17.90;;
70169;SDS011;57543;45.442;9.212;2022-12-07T09:35:58;30.00;;;15.98;;
70169;SDS011;57543;45.442;9.212;2022-12-07T09:39:02;33.08;;;18.25;;
70169;SDS011;57543;45.442;9.212;2022-12-07T09:42:07;28.27;;;16.57;;
70169;SDS011;57543;45.442;9.212;2022-12-07T09:45:15;29.05;;;16.55;;
70169;SDS011;57543;45.442;9.212;2022-12-07T09:48:28;32.47;;;17.00;;
70169;SDS011;57543;45.442;9.212;2022-12-07T09:51:33;28.08;;;16.70;;
70169;SDS011;57543;45.442;9.212;2022-12-07T09:54:37;31.85;;;16.45;;
70169;SDS011;57543;45.442;9.212;2022-12-07T09:57:47;32.30;;;17.63;;
70169;SDS011;57543;45.442;9.212;2022-12-07T10:04:15;32.75;;;17.55;;
70169;SDS011;57543;45.442;9.212;2022-12-07T10:07:22;33.00;;;17.33;;
70169;SDS011;57543;45.442;9.212;2022-12-07T10:10:28;39.00;;;20.25;;
70169;SDS011;57543;45.442;9.212;2022-12-07T10:13:35;39.30;;;19.83;;
70169;SDS011;57543;45.442;9.212;2022-12-07T10:16:41;40.67;;;19.75;;
70169;SDS011;57543;45.442;9.212;2022-12-07T10:19:45;44.22;;;21.35;;
70169;SDS011;57543;45.442;9.212;2022-12-07T10:22:56;41.03;;;20.50;;
70169;SDS011;57543;45.442;9.212;2022-12-07T10:26:03;39.80;;;20.42;;
70169;SDS011;57543;45.442;9.212;2022-12-07T10:32:36;44.70;;;21.52;;
70169;SDS011;57543;45.442;9.212;2022-12-07T10:35:43;37.65;;;20.05;;
70169;SDS011;57543;45.442;9.212;2022-12-07T10:39:32;39.28;;;19.83;;
70169;SDS011;57543;45.442;9.212;2022-12-07T10:42:19;33.33;;;18.63;;
70169;SDS011;57543;45.442;9.212;2022-12-07T10:45:24;34.77;;;19.87;;
70169;SDS011;57543;45.442;9.212;2022-12-07T10:52:10;30.17;;;18.67;;
70169;SDS011;57543;45.442;9.212;2022-12-07T10:55:22;36.38;;;18.38;;
70169;SDS011;57543;45.442;9.212;2022-12-07T11:02:24;36.43;;;20.67;;
70169;SDS011;57543;45.442;9.212;2022-12-07T11:05:39;37.30;;;20.92;;
70169;SDS011;57543;45.442;9.212;2022-12-07T11:08:57;33.40;;;19.73;;
70169;SDS011;57543;45.442;9.212;2022-12-07T11:12:23;35.25;;;19.85;;
70169;SDS011;57543;45.442;9.212;2022-12-07T11:15:35;40.28;;;21.67;;
70169;SDS011;57543;45.442;9.212;2022-12-07T11:22:15;37.90;;;20.48;;
70169;SDS011;57543;45.442;9.212;2022-12-07T11:32:43;38.88;;;20.75;;
70169;SDS011;57543;45.442;9.212;2022-12-07T11:36:14;38.00;;;20.97;;
70169;SDS011;57543;45.442;9.212;2022-12-07T11:39:35;35.90;;;19.63;;
70169;SDS011;57543;45.442;9.212;2022-12-07T11:42:44;37.05;;;20.45;;
70169;SDS011;57543;45.442;9.212;2022-12-07T11:46:03;35.53;;;19.10;;
70169;SDS011;57543;45.442;9.212;2022-12-07T11:52:58;33.47;;;18.50;;
70169;SDS011;57543;45.442;9.212;2022-12-07T12:02:41;36.67;;;19.77;;
70169;SDS011;57543;45.442;9.212;2022-12-07T12:05:52;39.63;;;19.85;;
70169;SDS011;57543;45.442;9.212;2022-12-07T12:22:22;36.83;;;19.20;;
70169;SDS011;57543;45.442;9.212;2022-12-07T12:32:03;34.33;;;18.40;;
70169;SDS011;57543;45.442;9.212;2022-12-07T12:41:56;36.07;;;18.70;;
70169;SDS011;57543;45.442;9.212;2022-12-07T12:45:22;38.35;;;19.20;;
70169;SDS011;57543;45.442;9.212;2022-12-07T12:48:35;41.05;;;19.65;;
70169;SDS011;57543;45.442;9.212;2022-12-07T12:51:50;35.92;;;18.23;;
70169;SDS011;57543;45.442;9.212;2022-12-07T12:54:58;40.78;;;20.55;;
70169;SDS011;57543;45.442;9.212;2022-12-07T13:01:36;39.25;;;20.17;;
70169;SDS011;57543;45.442;9.212;2022-12-07T13:08:02;38.90;;;20.10;;
70169;SDS011;57543;45.442;9.212;2022-12-07T13:11:19;38.13;;;20.50;;
70169;SDS011;57543;45.442;9.212;2022-12-07T13:14:42;38.13;;;19.17;;
70169;SDS011;57543;45.442;9.212;2022-12-07T13:17:56;38.22;;;19.17;;
70169;SDS011;57543;45.442;9.212;2022-12-07T13:21:02;40.13;;;19.80;;
70169;SDS011;57543;45.442;9.212;2022-12-07T13:24:12;41.33;;;20.30;;
70169;SDS011;57543;45.442;9.212;2022-12-07T13:27:16;44.33;;;21.50;;
70169;SDS011;57543;45.442;9.212;2022-12-07T13:30:21;45.90;;;21.50;;
70169;SDS011;57543;45.442;9.212;2022-12-07T13:33:25;42.80;;;21.25;;
70169;SDS011;57543;45.442;9.212;2022-12-07T13:36:33;43.35;;;20.42;;
70169;SDS011;57543;45.442;9.212;2022-12-07T13:39:47;43.63;;;20.83;;
70169;SDS011;57543;45.442;9.212;2022-12-07T13:42:57;39.65;;;19.88;;
70169;SDS011;57543;45.442;9.212;2022-12-07T13:46:02;44.13;;;21.33;;
70169;SDS011;57543;45.442;9.212;2022-12-07T13:49:30;39.05;;;21.13;;
70169;SDS011;57543;45.442;9.212;2022-12-07T13:52:35;47.35;;;23.15;;
70169;SDS011;57543;45.442;9.212;2022-12-07T13:55:47;42.95;;;21.90;;
70169;SDS011;57543;45.442;9.212;2022-12-07T13:58:51;41.20;;;21.55;;
70169;SDS011;57543;45.442;9.212;2022-12-07T14:01:55;41.87;;;22.10;;
70169;SDS011;57543;45.442;9.212;2022-12-07T14:05:09;41.80;;;21.98;;
70169;SDS011;57543;45.442;9.212;2022-12-07T14:11:21;36.30;;;19.95;;
70169;SDS011;57543;45.442;9.212;2022-12-07T14:14:26;38.03;;;20.05;;
70169;SDS011;57543;45.442;9.212;2022-12-07T14:17:32;34.93;;;19.77;;
70169;SDS011;57543;45.442;9.212;2022-12-07T14:20:36;34.17;;;19.58;;
70169;SDS011;57543;45.442;9.212;2022-12-07T14:23:41;34.05;;;19.15;;
70169;SDS011;57543;45.442;9.212;2022-12-07T14:26:49;33.47;;;18.35;;
70169;SDS011;57543;45.442;9.212;2022-12-07T14:29:54;33.28;;;18.38;;
70169;SDS011;57543;45.442;9.212;2022-12-07T14:33:01;35.13;;;18.43;;
70169;SDS011;57543;45.442;9.212;2022-12-07T14:36:13;31.88;;;19.02;;
70169;SDS011;57543;45.442;9.212;2022-12-07T14:39:18;33.95;;;18.65;;
70169;SDS011;57543;45.442;9.212;2022-12-07T14:42:23;32.58;;;18.63;;
70169;SDS011;57543;45.442;9.212;2022-12-07T14:45:30;32.30;;;17.90;;
70169;SDS011;57543;45.442;9.212;2022-12-07T14:48:34;29.87;;;18.27;;
70169;SDS011;57543;45.442;9.212;2022-12-07T14:51:38;36.30;;;18.45;;
70169;SDS011;57543;45.442;9.212;2022-12-07T14:54:43;32.58;;;18.05;;
70169;SDS011;57543;45.442;9.212;2022-12-07T14:57:47;32.00;;;17.83;;
70169;SDS011;57543;45.442;9.212;2022-12-07T15:00:51;32.10;;;18.42;;
70169;SDS011;57543;45.442;9.212;2022-12-07T15:03:55;29.53;;;17.30;;
70169;SDS011;57543;45.442;9.212;2022-12-07T15:07:00;31.95;;;18.73;;
70169;SDS011;57543;45.442;9.212;2022-12-07T15:10:08;30.33;;;18.05;;
70169;SDS011;57543;45.442;9.212;2022-12-07T15:13:18;30.25;;;17.05;;
70169;SDS011;57543;45.442;9.212;2022-12-07T15:16:41;30.77;;;17.98;;
70169;SDS011;57543;45.442;9.212;2022-12-07T15:19:45;33.63;;;18.00;;
70169;SDS011;57543;45.442;9.212;2022-12-07T15:22:49;32.30;;;17.52;;
70169;SDS011;57543;45.442;9.212;2022-12-07T15:25:52;32.72;;;18.50;;
70169;SDS011;57543;45.442;9.212;2022-12-07T15:28:56;31.98;;;17.80;;
70169;SDS011;57543;45.442;9.212;2022-12-07T15:32:00;34.35;;;18.83;;
70169;SDS011;57543;45.442;9.212;2022-12-07T15:35:03;32.57;;;19.17;;
70169;SDS011;57543;45.442;9.212;2022-12-07T15:38:07;31.73;;;18.58;;
70169;SDS011;57543;45.442;9.212;2022-12-07T15:41:11;32.38;;;19.30;;
70169;SDS011;57543;45.442;9.212;2022-12-07T15:44:15;39.20;;;21.27;;
70169;SDS011;57543;45.442;9.212;2022-12-07T15:47:41;32.70;;;19.45;;
70169;SDS011;57543;45.442;9.212;2022-12-07T15:50:46;34.97;;;19.73;;
70169;SDS011;57543;45.442;9.212;2022-12-07T15:53:50;36.22;;;21.42;;
70169;SDS011;57543;45.442;9.212;2022-12-07T15:56:54;39.58;;;22.10;;
70169;SDS011;57543;45.442;9.212;2022-12-07T15:59:59;38.72;;;20.88;;
70169;SDS011;57543;45.442;9.212;2022-12-07T16:03:03;36.88;;;21.15;;
70169;SDS011;57543;45.442;9.212;2022-12-07T16:06:07;35.27;;;20.27;;
70169;SDS011;57543;45.442;9.212;2022-12-07T16:09:10;36.60;;;20.60;;
70169;SDS011;57543;45.442;9.212;2022-12-07T16:12:14;41.67;;;21.50;;
70169;SDS011;57543;45.442;9.212;2022-12-07T16:15:18;35.42;;;21.73;;
70169;SDS011;57543;45.442;9.212;2022-12-07T16:18:21;38.15;;;20.85;;
70169;SDS011;57543;45.442;9.212;2022-12-07T16:21:25;34.97;;;20.47;;
70169;SDS011;57543;45.442;9.212;2022-12-07T16:24:29;35.90;;;20.92;;
70169;SDS011;57543;45.442;9.212;2022-12-07T16:27:34;37.70;;;20.42;;
70169;SDS011;57543;45.442;9.212;2022-12-07T16:30:38;39.40;;;20.83;;
70169;SDS011;57543;45.442;9.212;2022-12-07T16:33:42;42.72;;;22.23;;
70169;SDS011;57543;45.442;9.212;2022-12-07T16:36:46;45.27;;;22.10;;
70169;SDS011;57543;45.442;9.212;2022-12-07T16:39:50;44.08;;;22.27;;
70169;SDS011;57543;45.442;9.212;2022-12-07T16:42:54;47.90;;;23.10;;
70169;SDS011;57543;45.442;9.212;2022-12-07T16:45:58;46.05;;;23.58;;
70169;SDS011;57543;45.442;9.212;2022-12-07T16:49:02;46.75;;;23.48;;
70169;SDS011;57543;45.442;9.212;2022-12-07T16:52:06;47.57;;;21.50;;
70169;SDS011;57543;45.442;9.212;2022-12-07T16:55:09;45.30;;;22.17;;
70169;SDS011;57543;45.442;9.212;2022-12-07T16:58:13;50.28;;;23.45;;
70169;SDS011;57543;45.442;9.212;2022-12-07T17:01:18;49.38;;;23.17;;
70169;SDS011;57543;45.442;9.212;2022-12-07T17:04:25;46.83;;;23.00;;
70169;SDS011;57543;45.442;9.212;2022-12-07T17:07:28;47.33;;;21.50;;
70169;SDS011;57543;45.442;9.212;2022-12-07T17:10:32;45.58;;;21.63;;
70169;SDS011;57543;45.442;9.212;2022-12-07T17:13:38;46.13;;;21.52;;
70169;SDS011;57543;45.442;9.212;2022-12-07T17:17:01;46.97;;;21.95;;
70169;SDS011;57543;45.442;9.212;2022-12-07T17:20:05;47.47;;;22.55;;
70169;SDS011;57543;45.442;9.212;2022-12-07T17:23:10;44.47;;;20.67;;
70169;SDS011;57543;45.442;9.212;2022-12-07T17:26:15;48.72;;;22.00;;
70169;SDS011;57543;45.442;9.212;2022-12-07T17:29:20;52.47;;;23.30;;
70169;SDS011;57543;45.442;9.212;2022-12-07T17:32:25;48.83;;;22.40;;
70169;SDS011;57543;45.442;9.212;2022-12-07T17:35:29;52.13;;;22.13;;
70169;SDS011;57543;45.442;9.212;2022-12-07T17:38:33;47.53;;;21.70;;
70169;SDS011;57543;45.442;9.212;2022-12-07T17:41:36;52.67;;;23.80;;
70169;SDS011;57543;45.442;9.212;2022-12-07T17:44:59;50.25;;;22.75;;
70169;SDS011;57543;45.442;9.212;2022-12-07T17:48:03;54.20;;;23.08;;
70169;SDS011;57543;45.442;9.212;2022-12-07T17:51:08;55.47;;;24.05;;
70169;SDS011;57543;45.442;9.212;2022-12-07T17:54:30;62.80;;;23.43;;
70169;SDS011;57543;45.442;9.212;2022-12-07T17:57:33;57.30;;;24.13;;
70169;SDS011;57543;45.442;9.212;2022-12-07T18:00:37;57.78;;;23.60;;
70169;SDS011;57543;45.442;9.212;2022-12-07T18:03:41;61.40;;;24.45;;
70169;SDS011;57543;45.442;9.212;2022-12-07T18:06:45;63.15;;;25.17;;
70169;SDS011;57543;45.442;9.212;2022-12-07T18:09:48;63.17;;;25.63;;
70169;SDS011;57543;45.442;9.212;2022-12-07T18:12:51;63.15;;;25.38;;
70169;SDS011;57543;45.442;9.212;2022-12-07T18:16:16;59.22;;;24.63;;
70169;SDS011;57543;45.442;9.212;2022-12-07T18:19:22;59.38;;;23.75;;
70169;SDS011;57543;45.442;9.212;2022-12-07T18:22:26;66.88;;;25.08;;
70169;SDS011;57543;45.442;9.212;2022-12-07T18:25:30;67.10;;;24.93;;
70169;SDS011;57543;45.442;9.212;2022-12-07T18:28:34;75.93;;;27.33;;
70169;SDS011;57543;45.442;9.212;2022-12-07T18:31:37;70.82;;;27.27;;
70169;SDS011;57543;45.442;9.212;2022-12-07T18:34:41;71.20;;;26.42;;
70169;SDS011;57543;45.442;9.212;2022-12-07T18:37:45;69.47;;;29.17;;
70169;SDS011;57543;45.442;9.212;2022-12-07T18:40:49;70.93;;;26.57;;
70169;SDS011;57543;45.442;9.212;2022-12-07T18:43:53;68.80;;;26.75;;
70169;SDS011;57543;45.442;9.212;2022-12-07T18:46:57;70.55;;;26.75;;
70169;SDS011;57543;45.442;9.212;2022-12-07T18:50:01;68.47;;;26.52;;
70169;SDS011;57543;45.442;9.212;2022-12-07T18:53:06;58.28;;;25.67;;
70169;SDS011;57543;45.442;9.212;2022-12-07T18:56:19;63.43;;;27.30;;
70169;SDS011;57543;45.442;9.212;2022-12-07T18:59:24;64.97;;;25.85;;
70169;SDS011;57543;45.442;9.212;2022-12-07T19:02:49;57.25;;;26.00;;
70169;SDS011;57543;45.442;9.212;2022-12-07T19:05:54;64.25;;;27.60;;
70169;SDS011;57543;45.442;9.212;2022-12-07T19:09:00;59.20;;;25.42;;
70169;SDS011;57543;45.442;9.212;2022-12-07T19:12:04;55.47;;;25.67;;
70169;SDS011;57543;45.442;9.212;2022-12-07T19:15:09;60.00;;;25.90;;
70169;SDS011;57543;45.442;9.212;2022-12-07T19:18:15;59.17;;;26.25;;
70169;SDS011;57543;45.442;9.212;2022-12-07T19:21:18;60.08;;;27.35;;
70169;SDS011;57543;45.442;9.212;2022-12-07T19:24:22;57.10;;;25.13;;
70169;SDS011;57543;45.442;9.212;2022-12-07T19:27:26;59.33;;;26.13;;
70169;SDS011;57543;45.442;9.212;2022-12-07T19:30:30;58.28;;;26.10;;
70169;SDS011;57543;45.442;9.212;2022-12-07T19:33:33;60.85;;;26.70;;
70169;SDS011;57543;45.442;9.212;2022-12-07T19:36:37;66.53;;;29.30;;
70169;SDS011;57543;45.442;9.212;2022-12-07T19:39:42;60.58;;;27.95;;
70169;SDS011;57543;45.442;9.212;2022-12-07T19:42:45;68.77;;;28.97;;
70169;SDS011;57543;45.442;9.212;2022-12-07T19:45:49;60.47;;;26.48;;